Denver, CO (80220)

2:55 PM MDT on July 28, 2015 (GMT -0600)
Park Hill | | Change Station
CLOSE
Current Station
Personal Weather Station
Location: Denver, CO
Elevation: 5349 ft
Nearby Weather Stations

Elev 5349 ft 39.74 °N, 104.91 °W | Updated 24 seconds ago

Clear
Clear
83.8 °F
Feels Like 82 °F
N
11.5
Wind Variable Wind from East
Gusts 11.5 mph

Today
High -- | Low -- °F
--% Chance of Precip.
Yesterday
High -- | Low -- °F
Precip. -- in
5:54 AM 8:16 PM
Waxing Gibbous, 91% visible
Pressure 29.90 in
Visibility 10.0 miles
Clouds Few 15000 ft
Heat Index 82 °F
Dew Point 50 °F
Humidity 31%
Rainfall 0.00 in
Snow Depth Not available.
UV 6.6 out of 12
Pollen 6.40 out of 12
Air Quality Not available.
Flu Activity Not available.
METAR KAPA 281953Z 10015G26KT 10SM FEW150 29/05 A3014 RMK AO2 PK WND 12026/1950 SLP123 T02940050

More Conditions Fewer Conditions

Pressure 29.90 in
Visibility 10.0 miles
Clouds Few 15000 ft
Heat Index 82 °F
Dew Point 50 °F
Humidity 31%
Rainfall 0.00 in
Snow Depth Not available.
UV 6.6 out of 12
Pollen 6.40 out of 12
Air Quality Not available.
Flu Activity Not available.
METAR KAPA 281953Z 10015G26KT 10SM FEW150 29/05 A3014 RMK AO2 PK WND 12026/1950 SLP123 T02940050

More Conditions Fewer Conditions

10-Day Weather Forecast

×

Almanac

Astronomy

Jul. 28, 2015 Rise Set
Actual Time
Civil Twilight
Nautical Twilight
Astronomical Twilight
Moon
Length of Visible Light
Length of Day
Tomorrow will be .
, % of the Moon is Illuminated

Today's Extremes

State Highs State Lows

Community

WunderPhotos

Upload Photos

1,841,942 photos uploaded!

WunderBlogs® & News

Nearby

Air Quality

  Air Quality AQ Index Pollutant
Not available.

Snow Depth

Station Depth Elevation

Earthquake Activity

City Distance Mag. Time & Date
Minimum magnitude displayed is 2.5.

Coastal Water Temperatures

Place Temperature

Stations

Nearby Weather Stations

Station Location Temp. Windchill Dew Point Humidity Wind Precip. Elev Updated Type